Time;durP1;ratioP1;P1;durP2;ratioP2;P2;SDS_P1;SDS_P2;PMS_P1;PMS_P2;Temp;Humidity;BMP_temperature;BMP_pressure;BME280_temperature;BME280_humidity;BME280_pressure;Samples;Min_cycle;Max_cycle;Signal;HPM_P1;HPM_P2
2024/01/15 00:02:00;;;;;;;16.98;12.02;;;21.60;99.90;;;;;;4995932;28;20410;-52
2024/01/15 00:04:25;;;;;;;16.73;11.50;;;21.60;99.90;;;;;;4994679;28;20027;-52
2024/01/15 00:06:51;;;;;;;17.50;11.85;;;21.60;99.90;;;;;;5011137;28;20052;-52
2024/01/15 00:09:17;;;;;;;16.77;11.77;;;21.60;99.90;;;;;;4996035;28;20026;-52
2024/01/15 00:11:43;;;;;;;19.45;12.23;;;21.60;99.90;;;;;;4995809;28;20403;-52
2024/01/15 00:14:09;;;;;;;20.17;11.77;;;21.60;99.90;;;;;;4995892;28;20018;-52
2024/01/15 00:16:34;;;;;;;17.20;11.77;;;21.60;99.90;;;;;;4995913;28;20026;-53
2024/01/15 00:19:00;;;;;;;16.23;11.25;;;21.60;99.90;;;;;;4995704;28;20081;-52
2024/01/15 00:21:27;;;;;;;17.90;12.98;;;21.50;99.90;;;;;;4995730;28;20475;-53
2024/01/15 00:23:53;;;;;;;17.13;12.30;;;21.60;99.90;;;;;;4995542;28;20034;-53
2024/01/15 00:26:19;;;;;;;15.38;11.63;;;21.60;99.90;;;;;;5010737;28;20576;-53
2024/01/15 00:28:45;;;;;;;16.27;11.57;;;21.60;99.90;;;;;;4995733;28;20031;-52
2024/01/15 00:31:11;;;;;;;19.17;12.13;;;21.50;99.90;;;;;;5010617;28;20053;-52
2024/01/15 00:33:36;;;;;;;17.85;10.93;;;21.60;99.90;;;;;;4995436;28;20030;-52
2024/01/15 00:36:03;;;;;;;18.20;11.50;;;21.50;99.90;;;;;;5010361;28;20114;-53
2024/01/15 00:38:29;;;;;;;18.30;11.20;;;21.50;99.90;;;;;;4995289;28;20038;-52
2024/01/15 00:40:55;;;;;;;16.13;11.27;;;21.50;99.90;;;;;;4995429;28;20026;-53
2024/01/15 00:43:21;;;;;;;18.55;11.23;;;21.50;99.90;;;;;;4995545;28;20475;-53
2024/01/15 00:45:46;;;;;;;17.13;11.55;;;21.40;99.90;;;;;;5010320;28;20052;-52
2024/01/15 00:48:12;;;;;;;16.98;11.10;;;21.40;99.90;;;;;;4995186;28;20471;-52
2024/01/15 00:50:38;;;;;;;15.60;10.48;;;21.40;99.90;;;;;;4995233;28;20030;-53
2024/01/15 00:53:04;;;;;;;18.83;11.00;;;21.40;99.90;;;;;;4995034;28;20113;-53
2024/01/15 00:55:30;;;;;;;21.13;10.93;;;21.40;99.90;;;;;;4995234;28;20026;-53
2024/01/15 00:57:56;;;;;;;15.48;10.50;;;21.40;99.90;;;;;;4995169;28;20033;-53
2024/01/15 01:00:21;;;;;;;16.05;11.10;;;21.40;99.90;;;;;;5009405;23;20090;-58
2024/01/15 01:02:47;;;;;;;16.83;10.52;;;21.40;99.90;;;;;;5014234;28;20057;-58
2024/01/15 01:05:13;;;;;;;16.77;10.88;;;21.40;99.90;;;;;;5013130;28;20470;-58
2024/01/15 01:07:39;;;;;;;18.10;10.70;;;21.40;99.90;;;;;;5014429;28;20104;-58
2024/01/15 01:10:05;;;;;;;15.32;10.65;;;21.30;99.90;;;;;;5014397;28;20102;-58
2024/01/15 01:12:31;;;;;;;16.67;11.93;;;21.40;99.90;;;;;;5014560;28;20022;-58
2024/01/15 01:14:57;;;;;;;15.57;10.88;;;21.30;99.90;;;;;;5014380;28;20144;-58
2024/01/15 01:17:22;;;;;;;16.17;10.93;;;21.30;99.90;;;;;;5014702;28;20053;-57
2024/01/15 01:19:50;;;;;;;17.13;11.75;;;21.30;99.90;;;;;;5014465;28;20080;-58
2024/01/15 01:22:15;;;;;;;17.35;11.48;;;21.30;99.90;;;;;;5013002;28;20105;-58
2024/01/15 01:24:41;;;;;;;19.42;11.93;;;21.30;99.90;;;;;;5014135;28;20129;-58
2024/01/15 01:27:07;;;;;;;16.10;11.55;;;21.30;99.90;;;;;;5014273;28;20030;-58
2024/01/15 01:29:33;;;;;;;18.67;11.32;;;21.30;99.90;;;;;;5012802;28;20026;-59
2024/01/15 01:31:58;;;;;;;19.65;12.40;;;21.20;99.90;;;;;;5014078;28;20175;-58
2024/01/15 01:34:24;;;;;;;15.15;11.40;;;21.30;99.90;;;;;;5014006;28;20025;-59
2024/01/15 01:36:50;;;;;;;15.20;11.38;;;21.20;99.90;;;;;;5012987;28;20029;-57
2024/01/15 01:39:16;;;;;;;15.65;10.52;;;21.20;99.90;;;;;;5013893;28;20029;-58
2024/01/15 01:41:42;;;;;;;18.05;11.52;;;21.20;99.90;;;;;;5013867;28;20018;-58
2024/01/15 01:44:08;;;;;;;15.15;11.52;;;21.20;99.90;;;;;;5013770;28;20022;-59
2024/01/15 01:46:39;;;;;;;16.73;10.95;;;21.20;99.90;;;;;;5013623;28;20034;-59
2024/01/15 01:49:06;;;;;;;16.70;10.68;;;21.20;99.90;;;;;;5013850;28;20037;-58
2024/01/15 01:51:33;;;;;;;17.50;11.65;;;21.20;99.90;;;;;;5013697;28;20057;-58
2024/01/15 01:54:00;;;;;;;;;;;21.20;99.90;;;;;;5014216;28;20331;-56
2024/01/15 01:56:26;;;;;;;15.32;10.27;;;21.20;99.90;;;;;;5013622;28;20093;-57
2024/01/15 01:58:52;;;;;;;15.70;10.57;;;21.20;99.90;;;;;;5013674;28;20026;-58
2024/01/15 02:01:19;;;;;;;22.63;12.45;;;21.20;99.90;;;;;;5025490;22;20112;-51
2024/01/15 02:03:45;;;;;;;17.15;11.57;;;21.20;99.90;;;;;;5013560;28;20560;-51
2024/01/15 02:06:11;;;;;;;17.17;10.93;;;21.10;99.90;;;;;;5013390;28;20041;-53
2024/01/15 02:08:38;;;;;;;16.02;10.90;;;21.10;99.90;;;;;;5013388;28;20032;-51
2024/01/15 02:11:04;;;;;;;17.75;11.57;;;21.10;99.90;;;;;;5012012;28;20367;-51
2024/01/15 02:13:30;;;;;;;17.00;12.05;;;21.10;99.90;;;;;;5013064;28;20108;-51
2024/01/15 02:15:55;;;;;;;16.38;10.98;;;21.10;99.90;;;;;;5012494;28;20489;-51
2024/01/15 02:18:21;;;;;;;18.17;10.60;;;21.10;99.90;;;;;;5013418;28;20030;-51
2024/01/15 02:20:47;;;;;;;19.40;10.95;;;21.10;99.90;;;;;;5011934;28;20372;-54
2024/01/15 02:23:14;;;;;;;16.65;10.95;;;21.10;99.90;;;;;;5013251;28;20034;-51
2024/01/15 02:25:43;;;;;;;15.55;10.98;;;21.10;99.90;;;;;;5013123;28;20486;-52
2024/01/15 02:28:11;;;;;;;14.93;9.98;;;21.10;99.90;;;;;;5013140;28;20029;-52
2024/01/15 02:30:40;;;;;;;;;;;21.10;99.90;;;;;;5013472;28;20030;-51
2024/01/15 02:33:10;;;;;;;17.05;10.55;;;21.10;99.90;;;;;;5012918;28;19906;-51
2024/01/15 02:35:38;;;;;;;15.27;10.48;;;21.10;99.90;;;;;;5011595;28;20025;-51
2024/01/15 02:38:05;;;;;;;15.85;10.15;;;21.10;99.90;;;;;;5012987;28;20022;-52
2024/01/15 02:40:31;;;;;;;16.98;11.23;;;21.00;99.90;;;;;;5012950;28;20381;-51
2024/01/15 02:42:57;;;;;;;18.88;10.98;;;21.00;99.90;;;;;;5012808;28;20033;-52
2024/01/15 02:45:23;;;;;;;17.05;9.85;;;21.00;99.90;;;;;;5011643;28;20038;-52
2024/01/15 02:47:49;;;;;;;12.95;9.75;;;21.00;99.90;;;;;;5012666;28;20061;-53
2024/01/15 02:50:15;;;;;;;16.73;11.07;;;21.00;99.90;;;;;;5012773;28;20083;-52
2024/01/15 02:52:44;;;;;;;17.00;9.73;;;21.00;99.90;;;;;;5012604;28;20025;-52
2024/01/15 02:55:10;;;;;;;21.55;13.57;;;21.00;99.90;;;;;;5012576;28;20493;-52
2024/01/15 02:57:36;;;;;;;13.80;10.43;;;21.00;99.90;;;;;;5012671;28;20033;-52
2024/01/15 03:02:37;;;;;;;14.02;9.75;;;21.00;99.90;;;;;;5010868;28;20049;-56
2024/01/15 03:05:02;;;;;;;13.60;10.18;;;21.00;99.90;;;;;;5012503;28;20080;-56
2024/01/15 03:07:28;;;;;;;15.57;9.82;;;21.00;99.90;;;;;;5012581;28;20033;-57
2024/01/15 03:09:54;;;;;;;15.93;11.15;;;20.90;99.90;;;;;;5012649;28;20084;-56
2024/01/15 03:12:20;;;;;;;14.43;9.23;;;21.00;99.90;;;;;;5012382;28;20061;-58
2024/01/15 03:14:46;;;;;;;15.75;10.25;;;21.00;99.90;;;;;;5012445;28;20024;-57
2024/01/15 03:17:12;;;;;;;13.75;9.07;;;21.00;99.90;;;;;;5012629;28;20044;-58
2024/01/15 03:19:38;;;;;;;15.00;9.70;;;20.90;99.90;;;;;;5012370;28;20363;-57
2024/01/15 03:22:04;;;;;;;14.65;10.02;;;20.90;99.90;;;;;;5012352;28;20041;-57
2024/01/15 03:24:31;;;;;;;16.70;9.52;;;20.90;99.90;;;;;;5012155;28;20533;-56
2024/01/15 03:26:57;;;;;;;16.92;9.45;;;20.90;99.90;;;;;;5014819;28;20099;-57
2024/01/15 03:29:23;;;;;;;15.30;10.05;;;20.90;99.90;;;;;;5016349;28;20496;-57
2024/01/15 03:31:49;;;;;;;14.75;9.95;;;20.90;99.90;;;;;;5016283;28;20042;-56
2024/01/15 03:34:15;;;;;;;13.27;8.73;;;20.90;99.90;;;;;;5016324;28;20037;-57
2024/01/15 03:36:40;;;;;;;13.98;9.70;;;20.90;99.90;;;;;;5016298;28;20386;-58
2024/01/15 03:39:07;;;;;;;15.27;9.60;;;20.80;99.90;;;;;;5016261;28;20022;-56
2024/01/15 03:41:33;;;;;;;12.60;9.23;;;20.80;99.90;;;;;;5016428;28;20383;-57
2024/01/15 03:43:59;;;;;;;16.55;10.32;;;20.80;99.90;;;;;;5015996;28;20061;-55
2024/01/15 03:46:24;;;;;;;13.82;9.10;;;20.80;99.90;;;;;;5015858;28;20615;-58
2024/01/15 03:48:50;;;;;;;13.25;8.80;;;20.80;99.90;;;;;;5014685;28;20064;-56
2024/01/15 03:51:19;;;;;;;13.27;9.13;;;20.80;99.90;;;;;;5016340;28;20026;-56
2024/01/15 03:53:45;;;;;;;15.35;9.68;;;20.80;99.90;;;;;;5016154;28;20030;-57
2024/01/15 03:56:11;;;;;;;13.40;8.88;;;20.80;99.90;;;;;;5015806;28;20041;-58
2024/01/15 03:58:37;;;;;;;14.63;9.70;;;20.80;99.90;;;;;;5015793;28;20014;-57
2024/01/15 04:01:03;;;;;;;14.07;9.38;;;20.80;99.90;;;;;;5027981;23;20045;-52
2024/01/15 04:03:28;;;;;;;13.10;8.75;;;20.80;99.90;;;;;;5015645;28;20108;-51
2024/01/15 04:05:54;;;;;;;13.52;9.15;;;20.80;99.90;;;;;;5015678;28;20053;-51
2024/01/15 04:08:20;;;;;;;13.80;8.68;;;20.80;99.90;;;;;;5015622;28;20066;-54
2024/01/15 04:10:46;;;;;;;13.20;8.10;;;20.70;99.90;;;;;;5015784;28;20034;-54
2024/01/15 04:13:12;;;;;;;12.48;9.38;;;20.70;99.90;;;;;;5014302;28;20046;-54
2024/01/15 04:15:37;;;;;;;13.75;8.27;;;20.70;99.90;;;;;;5015630;28;20033;-53
2024/01/15 04:18:04;;;;;;;11.40;8.07;;;20.70;99.90;;;;;;5015434;28;20455;-53
2024/01/15 04:20:29;;;;;;;13.48;9.10;;;20.70;99.90;;;;;;5015270;28;20030;-51
2024/01/15 04:22:55;;;;;;;14.73;8.55;;;20.70;99.90;;;;;;5015350;28;20022;-51
2024/01/15 04:25:21;;;;;;;11.80;9.00;;;20.70;99.90;;;;;;5014048;28;20045;-54
2024/01/15 04:27:47;;;;;;;12.57;8.27;;;20.70;99.90;;;;;;5015524;28;20470;-54
2024/01/15 04:30:13;;;;;;;14.55;8.57;;;20.70;99.90;;;;;;5015095;28;20399;-54
2024/01/15 04:32:39;;;;;;;14.05;9.18;;;20.70;99.90;;;;;;5014982;28;20433;-51
2024/01/15 04:35:04;;;;;;;13.68;7.80;;;20.70;99.90;;;;;;5015128;28;20031;-51
2024/01/15 04:37:30;;;;;;;13.15;9.20;;;20.70;99.90;;;;;;5014271;28;20080;-51
2024/01/15 04:39:57;;;;;;;13.95;9.25;;;20.60;99.90;;;;;;5014974;28;20030;-51
2024/01/15 04:42:23;;;;;;;13.70;8.20;;;20.60;99.90;;;;;;5014984;28;20028;-52
2024/01/15 04:44:49;;;;;;;14.35;8.20;;;20.60;99.90;;;;;;5015098;28;20109;-52
2024/01/15 04:47:15;;;;;;;13.68;8.70;;;20.60;99.90;;;;;;5014962;28;20088;-52
2024/01/15 04:49:41;;;;;;;17.02;8.50;;;20.60;99.90;;;;;;5014867;28;20033;-52
2024/01/15 04:52:06;;;;;;;14.30;7.78;;;20.60;99.90;;;;;;5014703;28;20049;-52
2024/01/15 04:54:32;;;;;;;12.65;7.93;;;20.60;99.90;;;;;;5014802;28;20018;-51
2024/01/15 04:56:58;;;;;;;12.90;7.57;;;20.60;99.90;;;;;;5014647;28;20030;-52
2024/01/15 04:59:24;;;;;;;12.23;8.05;;;20.60;99.90;;;;;;5014755;28;20023;-51
2024/01/15 05:01:50;;;;;;;12.25;7.60;;;20.60;99.90;;;;;;5015152;28;20483;-52
2024/01/15 05:04:15;;;;;;;12.88;8.23;;;20.60;99.90;;;;;;5014674;28;20029;-51
2024/01/15 05:06:41;;;;;;;19.05;9.02;;;20.60;99.90;;;;;;5014487;28;20095;-51
2024/01/15 05:09:07;;;;;;;12.10;7.78;;;20.50;99.90;;;;;;5014429;28;20026;-51
2024/01/15 05:11:33;;;;;;;14.43;8.68;;;20.50;99.90;;;;;;5013302;28;20113;-53
2024/01/15 05:13:59;;;;;;;12.38;7.80;;;20.50;99.90;;;;;;5014464;28;20068;-51
2024/01/15 05:16:24;;;;;;;11.80;8.25;;;20.50;99.90;;;;;;5014259;28;20089;-51
2024/01/15 05:18:50;;;;;;;11.32;7.40;;;20.50;99.90;;;;;;5014512;28;20061;-51
2024/01/15 05:21:16;;;;;;;14.90;8.27;;;20.50;99.90;;;;;;5013090;28;20022;-51
2024/01/15 05:23:42;;;;;;;12.15;7.97;;;20.50;99.90;;;;;;5014254;28;20034;-51
2024/01/15 05:26:08;;;;;;;14.23;8.50;;;20.50;99.90;;;;;;5014068;28;20104;-51
2024/01/15 05:28:35;;;;;;;14.63;8.45;;;20.50;99.90;;;;;;5014025;28;20021;-51
2024/01/15 05:31:01;;;;;;;13.77;8.32;;;20.50;99.90;;;;;;5012975;28;20493;-51
2024/01/15 05:33:27;;;;;;;10.10;7.63;;;20.50;99.90;;;;;;5013982;28;20025;-51
2024/01/15 05:35:53;;;;;;;12.43;7.80;;;20.50;99.90;;;;;;5012856;28;20056;-51
2024/01/15 05:38:19;;;;;;;11.45;7.22;;;20.50;99.90;;;;;;5014140;28;20029;-51
2024/01/15 05:40:45;;;;;;;15.30;7.93;;;20.50;99.90;;;;;;5013867;28;20021;-52
2024/01/15 05:43:11;;;;;;;12.75;7.70;;;20.40;99.90;;;;;;5013965;28;20061;-52
2024/01/15 05:45:39;;;;;;;13.93;8.05;;;20.40;99.90;;;;;;5013760;28;20393;-52
2024/01/15 05:48:05;;;;;;;10.35;7.22;;;20.40;99.90;;;;;;5013755;28;20101;-52
2024/01/15 05:50:31;;;;;;;12.60;7.60;;;20.40;99.90;;;;;;5013737;28;20153;-52
2024/01/15 05:52:56;;;;;;;10.43;7.13;;;20.40;99.90;;;;;;5013586;28;20026;-52
2024/01/15 05:55:22;;;;;;;13.65;7.75;;;20.40;99.90;;;;;;5013978;28;20057;-52
2024/01/15 05:57:48;;;;;;;12.65;8.15;;;20.40;99.90;;;;;;5013595;28;20026;-52
2024/01/15 06:00:14;;;;;;;10.43;6.80;;;20.40;99.90;;;;;;5012410;28;20026;-55
2024/01/15 06:02:40;;;;;;;11.82;7.75;;;20.40;99.90;;;;;;4994906;28;20047;-52
2024/01/15 06:05:07;;;;;;;10.02;7.53;;;20.40;99.90;;;;;;4992913;28;20045;-52
2024/01/15 06:07:36;;;;;;;11.70;6.80;;;20.40;99.90;;;;;;4992617;28;20022;-52
2024/01/15 06:10:01;;;;;;;10.88;7.07;;;20.40;99.90;;;;;;4993419;28;20023;-51
2024/01/15 06:12:28;;;;;;;10.68;7.55;;;20.40;99.90;;;;;;4993666;28;20022;-51
2024/01/15 06:14:54;;;;;;;10.13;7.00;;;20.40;99.90;;;;;;4993875;28;20062;-52
2024/01/15 06:17:20;;;;;;;10.43;7.78;;;20.40;99.90;;;;;;4993552;28;20054;-52
2024/01/15 06:19:45;;;;;;;12.65;6.75;;;20.40;99.90;;;;;;4992240;28;20041;-52
2024/01/15 06:22:11;;;;;;;9.98;6.70;;;20.40;99.90;;;;;;4993510;28;20447;-51
2024/01/15 06:24:37;;;;;;;11.38;7.07;;;20.40;99.90;;;;;;4993400;28;20120;-52
2024/01/15 06:27:03;;;;;;;10.77;6.70;;;20.40;99.90;;;;;;4993600;28;20077;-51
2024/01/15 06:29:29;;;;;;;9.07;6.13;;;20.30;99.90;;;;;;4993496;28;20117;-52
2024/01/15 06:31:55;;;;;;;12.70;6.50;;;20.40;99.90;;;;;;4993643;28;20037;-51
2024/01/15 06:34:21;;;;;;;13.25;6.85;;;20.30;99.90;;;;;;4993450;28;20027;-51
2024/01/15 06:36:47;;;;;;;11.48;6.97;;;20.30;99.90;;;;;;4993174;28;20022;-51
2024/01/15 06:39:13;;;;;;;8.70;6.25;;;20.40;99.90;;;;;;4993157;28;20057;-52
2024/01/15 06:41:43;;;;;;;12.70;6.82;;;20.30;99.90;;;;;;4993100;28;20030;-51
2024/01/15 06:44:10;;;;;;;12.32;6.97;;;20.30;99.90;;;;;;4993216;28;20385;-52
2024/01/15 06:46:36;;;;;;;8.68;6.00;;;20.40;99.90;;;;;;4993001;28;20031;-52
2024/01/15 06:49:03;;;;;;;9.18;5.85;;;20.30;99.90;;;;;;4993023;28;20027;-52
2024/01/15 06:51:29;;;;;;;10.40;5.90;;;20.30;99.90;;;;;;4993040;28;20026;-52
2024/01/15 06:53:55;;;;;;;12.15;5.90;;;20.30;99.90;;;;;;4993144;28;20517;-52
2024/01/15 06:56:21;;;;;;;13.35;6.72;;;20.30;99.90;;;;;;4992742;28;20125;-52
2024/01/15 06:58:46;;;;;;;10.32;6.68;;;20.30;99.90;;;;;;5004064;28;20233;-52
2024/01/15 07:01:12;;;;;;;11.25;6.22;;;20.30;99.90;;;;;;5011984;28;20129;-53
2024/01/15 07:03:38;;;;;;;12.60;7.45;;;20.30;99.90;;;;;;5012502;28;20057;-52
2024/01/15 07:06:04;;;;;;;15.63;6.65;;;20.30;99.90;;;;;;5012471;28;20045;-51
2024/01/15 07:08:30;;;;;;;11.43;6.72;;;20.30;99.90;;;;;;5012401;28;20033;-51
2024/01/15 07:10:56;;;;;;;11.77;6.65;;;20.30;99.90;;;;;;5011630;28;20041;-51
2024/01/15 07:13:22;;;;;;;13.88;6.07;;;20.30;99.90;;;;;;5011237;28;20030;-53
2024/01/15 07:15:48;;;;;;;11.13;5.95;;;20.30;99.90;;;;;;5009497;28;20386;-52
2024/01/15 07:18:13;;;;;;;13.38;7.95;;;20.30;99.90;;;;;;5012153;28;20378;-52
2024/01/15 07:20:39;;;;;;;12.65;6.43;;;20.30;99.90;;;;;;5011042;28;20113;-51
2024/01/15 07:23:05;;;;;;;11.48;5.97;;;20.30;99.90;;;;;;5012302;28;20030;-52
2024/01/15 07:25:31;;;;;;;9.93;6.65;;;20.30;99.90;;;;;;5012056;28;20109;-52
2024/01/15 07:27:56;;;;;;;11.07;6.80;;;20.30;99.90;;;;;;5011222;28;20390;-53
2024/01/15 07:30:22;;;;;;;12.48;6.05;;;20.30;99.90;;;;;;5012177;28;20030;-53
2024/01/15 07:32:48;;;;;;;11.65;6.45;;;20.30;99.90;;;;;;5012202;28;20028;-52
2024/01/15 07:35:15;;;;;;;13.13;6.55;;;20.30;99.90;;;;;;5012053;28;20033;-53
2024/01/15 07:37:41;;;;;;;15.77;6.37;;;20.30;99.90;;;;;;5012212;28;20466;-53
2024/01/15 07:40:08;;;;;;;15.25;6.65;;;20.20;99.90;;;;;;5012202;28;20263;-53
2024/01/15 07:42:35;;;;;;;14.55;6.15;;;20.20;99.90;;;;;;5012230;28;20073;-53
2024/01/15 07:45:01;;;;;;;14.85;6.50;;;20.30;99.90;;;;;;5011834;28;20359;-52
2024/01/15 07:47:27;;;;;;;12.95;5.90;;;20.20;99.90;;;;;;5011992;28;20482;-53
2024/01/15 07:49:53;;;;;;;9.52;6.05;;;20.20;99.90;;;;;;5010890;28;20030;-52
2024/01/15 07:52:19;;;;;;;17.33;6.72;;;20.20;99.90;;;;;;5011924;28;20026;-52
2024/01/15 07:54:45;;;;;;;11.98;5.97;;;20.20;99.90;;;;;;5010515;28;20026;-52
2024/01/15 07:57:11;;;;;;;12.90;6.47;;;20.20;99.90;;;;;;5011811;28;20021;-52
2024/01/15 07:59:37;;;;;;;13.68;6.93;;;20.20;99.90;;;;;;5011848;28;20060;-53
2024/01/15 08:02:03;;;;;;;18.48;6.85;;;20.20;99.90;;;;;;5011757;28;20109;-52
2024/01/15 08:04:29;;;;;;;14.65;6.07;;;20.20;99.90;;;;;;5012006;28;20030;-52
2024/01/15 08:06:56;;;;;;;12.00;7.07;;;20.20;99.90;;;;;;5011722;28;20037;-52
2024/01/15 08:09:22;;;;;;;12.32;6.55;;;20.20;99.90;;;;;;5011948;28;20021;-52
2024/01/15 08:11:49;;;;;;;11.15;6.03;;;20.20;99.90;;;;;;5011758;28;20388;-52
2024/01/15 08:14:15;;;;;;;11.73;6.38;;;20.20;99.90;;;;;;5014450;28;20030;-52
2024/01/15 08:16:41;;;;;;;11.73;6.50;;;20.20;99.90;;;;;;5015369;28;20037;-53
2024/01/15 08:19:07;;;;;;;12.57;6.80;;;20.20;99.90;;;;;;5015307;28;20026;-52
2024/01/15 08:21:34;;;;;;;13.57;6.40;;;20.20;99.90;;;;;;5015293;28;20161;-52
2024/01/15 08:24:02;;;;;;;12.38;6.78;;;20.20;99.90;;;;;;5015392;28;20037;-52
2024/01/15 08:26:27;;;;;;;;;;;20.20;99.90;;;;;;5015782;28;20034;-52
2024/01/15 08:28:53;;;;;;;15.25;7.32;;;20.20;99.90;;;;;;5015188;28;19945;-52
2024/01/15 08:31:19;;;;;;;12.60;6.43;;;20.20;99.90;;;;;;5015136;28;20030;-52
2024/01/15 08:33:45;;;;;;;12.30;6.65;;;20.20;99.90;;;;;;5015191;28;20028;-52
2024/01/15 08:36:12;;;;;;;19.27;6.70;;;20.20;99.90;;;;;;5014916;28;20565;-52
2024/01/15 08:38:37;;;;;;;9.48;6.55;;;20.20;99.90;;;;;;5014901;28;20051;-52
2024/01/15 08:41:04;;;;;;;13.05;7.03;;;20.20;99.90;;;;;;5013540;28;20363;-52
2024/01/15 08:43:31;;;;;;;12.43;6.97;;;20.20;99.90;;;;;;5015083;28;20029;-53
2024/01/15 08:45:57;;;;;;;13.60;6.90;;;20.20;99.90;;;;;;5014665;28;20058;-52
2024/01/15 08:48:23;;;;;;;12.60;7.40;;;20.20;99.90;;;;;;5014534;28;20323;-53
2024/01/15 08:50:49;;;;;;;11.48;6.78;;;20.20;99.90;;;;;;5014672;28;20022;-52
2024/01/15 08:53:15;;;;;;;13.07;7.03;;;20.20;99.90;;;;;;5014622;28;20088;-53
2024/01/15 08:55:44;;;;;;;13.88;7.15;;;20.20;99.90;;;;;;5014535;28;20030;-52
2024/01/15 08:58:10;;;;;;;14.23;8.02;;;20.20;99.90;;;;;;5014490;28;20433;-53
2024/01/15 09:00:36;;;;;;;10.85;7.38;;;20.20;99.90;;;;;;5012836;28;20026;-52
2024/01/15 09:03:02;;;;;;;15.25;7.35;;;20.20;99.90;;;;;;5014582;28;20076;-53
2024/01/15 09:05:28;;;;;;;12.40;7.40;;;20.30;99.90;;;;;;5014493;28;20026;-52
2024/01/15 09:07:54;;;;;;;12.75;7.10;;;20.20;99.90;;;;;;5014387;28;20037;-52
2024/01/15 09:10:21;;;;;;;14.50;8.02;;;20.30;99.90;;;;;;5014293;28;20112;-52
2024/01/15 09:12:48;;;;;;;12.95;7.45;;;20.30;99.90;;;;;;5012814;28;20029;-52
2024/01/15 09:15:15;;;;;;;14.43;7.70;;;20.30;99.90;;;;;;5014118;28;20041;-52
2024/01/15 09:17:41;;;;;;;9.52;6.57;;;20.30;99.90;;;;;;5013966;28;20049;-52
2024/01/15 09:20:07;;;;;;;12.60;6.65;;;20.30;99.90;;;;;;5014026;28;20026;-53
2024/01/15 09:22:33;;;;;;;14.20;7.63;;;20.30;99.90;;;;;;5014295;28;20470;-52
2024/01/15 09:24:59;;;;;;;12.95;7.70;;;20.30;99.90;;;;;;5013527;28;20048;-52
2024/01/15 09:27:28;;;;;;;12.73;7.95;;;20.30;99.90;;;;;;5013793;28;20034;-53
2024/01/15 09:29:54;;;;;;;13.68;7.57;;;20.30;99.90;;;;;;5013771;28;20030;-52
2024/01/15 09:32:20;;;;;;;15.00;8.45;;;20.30;99.90;;;;;;5013642;28;20034;-53
2024/01/15 09:34:48;;;;;;;15.95;8.30;;;20.30;99.90;;;;;;5013961;28;20026;-53
2024/01/15 09:37:15;;;;;;;12.10;6.68;;;20.40;99.90;;;;;;5013752;28;20489;-53
2024/01/15 09:39:41;;;;;;;15.68;7.85;;;20.40;99.90;;;;;;5012541;28;20057;-52
2024/01/15 09:42:07;;;;;;;13.55;7.68;;;20.40;99.90;;;;;;5013537;28;20026;-52
2024/01/15 09:44:33;;;;;;;12.57;7.68;;;20.30;99.90;;;;;;5013851;28;20045;-51
2024/01/15 09:47:00;;;;;;;13.57;7.85;;;20.40;99.90;;;;;;5013559;28;20041;-52
2024/01/15 09:49:25;;;;;;;13.10;7.78;;;20.40;99.90;;;;;;5013660;28;20050;-52
2024/01/15 09:51:52;;;;;;;12.25;7.65;;;20.40;99.90;;;;;;5013621;28;20060;-53
2024/01/15 09:54:18;;;;;;;12.73;7.50;;;20.40;99.90;;;;;;5013550;28;20325;-52
2024/01/15 09:56:47;;;;;;;13.80;7.85;;;20.40;99.90;;;;;;5013455;28;20025;-53
2024/01/15 09:59:18;;;;;;;12.85;7.55;;;20.40;99.90;;;;;;5012430;28;20026;-52
2024/01/15 10:01:44;;;;;;;13.02;7.05;;;20.40;99.90;;;;;;5013237;28;20069;-53
2024/01/15 10:04:12;;;;;;;11.73;6.65;;;20.40;99.90;;;;;;5013429;28;20022;-52
2024/01/15 10:06:39;;;;;;;17.10;7.63;;;20.40;99.90;;;;;;5013239;28;20038;-52
2024/01/15 10:09:07;;;;;;;13.85;7.45;;;20.40;99.90;;;;;;5013454;28;20478;-52
2024/01/15 10:11:33;;;;;;;11.73;8.10;;;20.40;99.90;;;;;;5013434;28;20033;-52
2024/01/15 10:13:59;;;;;;;14.13;6.93;;;20.40;99.90;;;;;;5013132;28;20359;-53
2024/01/15 10:16:26;;;;;;;13.77;7.63;;;20.50;99.90;;;;;;5013184;28;20030;-52
2024/01/15 10:18:52;;;;;;;12.67;7.80;;;20.50;99.90;;;;;;5013054;28;20025;-52
2024/01/15 10:21:17;;;;;;;14.05;7.75;;;20.50;99.90;;;;;;5011795;28;20072;-53
2024/01/15 10:23:44;;;;;;;18.90;9.13;;;20.50;99.90;;;;;;5013044;28;20065;-53
2024/01/15 10:26:11;;;;;;;16.00;9.13;;;20.50;99.90;;;;;;5013085;28;20371;-52
2024/01/15 10:28:37;;;;;;;21.10;8.05;;;20.50;99.90;;;;;;5012138;28;20033;-51
2024/01/15 10:31:04;;;;;;;13.45;8.00;;;20.50;99.90;;;;;;5013082;28;20030;-52
2024/01/15 10:33:30;;;;;;;18.63;8.85;;;20.50;99.90;;;;;;5012780;28;20018;-52
2024/01/15 10:36:00;;;;;;;15.10;8.07;;;20.50;99.90;;;;;;5012159;28;20091;-52
2024/01/15 10:38:27;;;;;;;16.95;8.25;;;20.50;99.90;;;;;;5012722;28;20025;-52
2024/01/15 10:40:54;;;;;;;18.50;9.38;;;20.50;99.90;;;;;;5012745;28;20032;-52
2024/01/15 10:43:20;;;;;;;19.02;9.65;;;20.60;99.90;;;;;;5012728;28;20026;-53
2024/01/15 10:45:47;;;;;;;19.35;9.48;;;20.50;99.90;;;;;;5012483;28;20038;-52
2024/01/15 10:48:16;;;;;;;13.95;8.82;;;20.50;99.90;;;;;;5012488;28;20046;-53
2024/01/15 10:50:41;;;;;;;16.42;9.23;;;20.50;99.90;;;;;;5012534;28;20034;-53
2024/01/15 10:53:11;;;;;;;19.83;9.85;;;20.60;99.90;;;;;;5012562;28;20087;-53
2024/01/15 10:55:39;;;;;;;18.13;9.25;;;20.60;99.90;;;;;;5012711;28;20022;-53
2024/01/15 10:58:07;;;;;;;;;;;20.60;99.90;;;;;;5012926;28;20601;-53
2024/01/15 11:00:40;;;;;;;20.20;10.48;;;20.60;99.90;;;;;;5010924;28;19913;-53
2024/01/15 11:03:07;;;;;;;19.67;10.35;;;20.60;99.90;;;;;;5012470;28;20113;-53
2024/01/15 11:05:43;;;;;;;21.50;10.68;;;20.60;99.90;;;;;;5012037;28;20084;-53
2024/01/15 11:08:09;;;;;;;23.48;11.57;;;20.60;99.90;;;;;;5012591;28;20025;-53
2024/01/15 11:10:41;;;;;;;19.63;11.52;;;20.60;99.90;;;;;;5012340;28;20040;-53
2024/01/15 11:13:14;;;;;;;21.27;11.55;;;20.70;99.90;;;;;;5011064;28;20118;-54
2024/01/15 11:16:09;;;;;;;21.58;11.63;;;20.60;99.90;;;;;;5012445;28;20092;-54
2024/01/15 11:18:56;;;;;;;21.55;11.00;;;20.60;99.90;;;;;;5012184;28;20022;-54
2024/01/15 11:21:23;;;;;;;23.48;13.23;;;20.60;99.90;;;;;;5012106;28;20033;-54
2024/01/15 11:24:02;;;;;;;22.60;11.95;;;20.60;99.90;;;;;;5012328;28;20072;-54
2024/01/15 11:26:37;;;;;;;18.00;11.68;;;20.60;99.90;;;;;;5012016;28;20049;-54
2024/01/15 11:29:28;;;;;;;25.98;12.25;;;20.70;99.90;;;;;;5012153;28;20374;-53
2024/01/15 11:32:05;;;;;;;21.63;12.80;;;20.70;99.90;;;;;;5012208;28;20041;-54
2024/01/15 11:34:49;;;;;;;25.30;12.88;;;20.70;99.90;;;;;;5012162;28;20026;-53
2024/01/15 11:37:15;;;;;;;22.38;12.77;;;20.70;99.90;;;;;;5011926;28;20370;-53
2024/01/15 11:39:42;;;;;;;25.63;13.65;;;20.70;99.90;;;;;;5012219;28;20026;-52
2024/01/15 11:42:10;;;;;;;23.92;14.27;;;20.70;99.90;;;;;;5012289;28;20092;-53
2024/01/15 11:44:40;;;;;;;29.45;14.38;;;20.70;99.90;;;;;;5012041;28;20026;-53
2024/01/15 11:47:12;;;;;;;23.05;12.98;;;20.70;99.90;;;;;;5012700;28;20034;-53
2024/01/15 11:50:02;;;;;;;28.20;13.15;;;20.70;99.90;;;;;;5016094;28;20056;-53
2024/01/15 11:53:01;;;;;;;21.95;12.23;;;20.70;99.90;;;;;;5015673;28;20030;-53
2024/01/15 11:55:35;;;;;;;23.23;12.65;;;20.70;99.90;;;;;;5015643;28;20370;-53
2024/01/15 11:58:02;;;;;;;31.65;14.02;;;20.80;99.90;;;;;;5015865;28;20109;-53
2024/01/15 12:00:28;;;;;;;25.65;13.43;;;20.80;99.90;;;;;;5015614;28;20378;-52
2024/01/15 12:02:55;;;;;;;19.67;11.98;;;20.80;99.90;;;;;;5015792;28;20517;-53
2024/01/15 12:05:23;;;;;;;21.13;13.05;;;20.80;99.90;;;;;;5015705;28;20058;-52
2024/01/15 12:07:49;;;;;;;;;;;20.80;99.90;;;;;;5015942;28;20064;-53
2024/01/15 12:10:22;;;;;;;23.58;13.65;;;20.90;99.90;;;;;;5015475;28;20350;-53
2024/01/15 12:12:59;;;;;;;22.40;13.35;;;20.90;99.90;;;;;;5015504;28;20030;-53
2024/01/15 12:15:27;;;;;;;26.13;14.10;;;20.90;99.90;;;;;;5015435;28;20037;-53
2024/01/15 12:17:58;;;;;;;28.20;13.80;;;20.90;99.90;;;;;;5014118;28;20479;-53
2024/01/15 12:20:25;;;;;;;24.38;12.85;;;20.90;99.90;;;;;;5014192;28;20057;-53
2024/01/15 12:22:51;;;;;;;25.67;12.43;;;20.90;99.90;;;;;;5015351;28;20026;-53
2024/01/15 12:25:16;;;;;;;25.98;13.32;;;20.90;99.90;;;;;;5015114;28;20045;-53
2024/01/15 12:27:42;;;;;;;27.02;13.52;;;20.90;99.90;;;;;;5015484;28;20033;-53
2024/01/15 12:30:11;;;;;;;26.88;13.27;;;20.90;99.90;;;;;;5013764;28;20030;-53
2024/01/15 12:32:37;;;;;;;21.75;12.20;;;20.90;99.90;;;;;;5015072;28;20496;-53
2024/01/15 12:35:04;;;;;;;26.98;14.20;;;20.90;99.90;;;;;;5013843;28;20022;-53
2024/01/15 12:37:30;;;;;;;25.17;14.02;;;20.90;99.90;;;;;;5015177;28;20022;-53